Time;durP1;ratioP1;P1;durP2;ratioP2;P2;SDS_P1;SDS_P2;PMS_P1;PMS_P2;Temp;Humidity;BMP_temperature;BMP_pressure;BME280_temperature;BME280_humidity;BME280_pressure;Samples;Min_cycle;Max_cycle;Signal;HPM_P1;HPM_P2
2021/08/26 00:00:05;;;;;;;;;;;20.40;67.90;;;;;;4987381;28;1357;-72
2021/08/26 00:08:16;;;;;;;;;;;20.40;68.00;;;;;;4972664;28;1316;-72
2021/08/26 00:10:41;;;;;;;;;;;20.40;68.00;;;;;;4973766;28;1358;-72
2021/08/26 00:13:07;;;;;;;;;;;20.40;68.00;;;;;;4987194;28;1955;-72
2021/08/26 00:15:35;;;;;;;;;;;20.40;68.00;;;;;;4984973;28;1362;-72
2021/08/26 00:18:01;;;;;;;;;;;20.40;68.00;;;;;;4988832;28;1194;-73
2021/08/26 00:20:26;;;;;;;;;;;20.40;68.00;;;;;;4983810;28;1299;-72
2021/08/26 00:22:52;;;;;;;;;;;20.40;68.10;;;;;;4987190;28;1088;-72
2021/08/26 00:25:17;;;;;;;;;;;20.40;68.00;;;;;;4981473;28;1143;-72
2021/08/26 00:27:43;;;;;;;;;;;20.40;68.00;;;;;;4993753;28;1264;-72
2021/08/26 00:30:08;;;;;;;;;;;20.40;68.00;;;;;;4993116;28;1355;-73
2021/08/26 00:32:34;;;;;;;;;;;20.40;68.10;;;;;;4991790;28;1957;-73
2021/08/26 00:34:59;;;;;;;;;;;20.40;68.10;;;;;;4984236;28;1076;-72
2021/08/26 00:37:25;;;;;;;;;;;20.40;68.10;;;;;;4973810;28;1260;-72
2021/08/26 00:39:50;;;;;;;;;;;20.40;68.10;;;;;;4992968;28;1294;-74
2021/08/26 00:42:15;;;;;;;;;;;20.40;68.10;;;;;;4979998;28;1266;-72
2021/08/26 00:44:41;;;;;;;;;;;20.40;68.10;;;;;;4985668;28;1123;-72
2021/08/26 00:47:07;;;;;;;;;;;20.40;68.10;;;;;;4973481;28;1274;-74
2021/08/26 00:49:33;;;;;;;;;;;20.40;68.20;;;;;;4988832;28;1159;-72
2021/08/26 00:51:58;;;;;;;;;;;20.40;68.10;;;;;;4996734;28;1184;-71
2021/08/26 00:54:24;;;;;;;;;;;20.40;68.10;;;;;;4980100;28;1898;-73
2021/08/26 00:56:49;;;;;;;;;;;20.40;69.00;;;;;;4990242;28;1057;-72
2021/08/26 00:59:15;;;;;;;;;;;20.40;68.10;;;;;;4981556;28;1273;-72
2021/08/26 01:01:45;;;;;;;;;;;20.40;68.10;;;;;;4991580;28;1186;-72
2021/08/26 01:04:24;;;;;;;;;;;20.40;68.20;;;;;;4981585;28;1085;-73
2021/08/26 01:06:57;;;;;;;;;;;20.40;68.20;;;;;;4988067;28;1349;-72
2021/08/26 01:09:24;;;;;;;;;;;20.40;68.20;;;;;;4983284;28;1073;-72
2021/08/26 01:11:49;;;;;;;;;;;20.40;68.20;;;;;;4991750;28;1343;-74
2021/08/26 01:14:15;;;;;;;;;;;20.40;68.20;;;;;;4980908;28;1899;-72
2021/08/26 01:16:40;;;;;;;;;;;20.40;68.20;;;;;;4969340;28;1133;-73
2021/08/26 01:19:06;;;;;;;;;;;20.40;68.20;;;;;;4972328;28;1330;-73
2021/08/26 01:21:32;;;;;;;;;;;20.40;68.20;;;;;;4986165;28;1279;-72
2021/08/26 01:23:59;;;;;;;;;;;20.40;68.20;;;;;;4983192;28;1127;-75
2021/08/26 01:26:29;;;;;;;;;;;20.40;68.20;;;;;;4994498;28;1328;-73
2021/08/26 01:28:56;;;;;;;;;;;20.40;68.30;;;;;;4995484;28;1288;-72
2021/08/26 01:31:22;;;;;;;;;;;20.40;68.30;;;;;;4978062;28;1337;-72
2021/08/26 01:33:51;;;;;;;;;;;20.40;68.30;;;;;;4977281;28;1947;-71
2021/08/26 01:36:16;;;;;;;;;;;20.40;68.70;;;;;;4995264;28;1201;-73
2021/08/26 01:38:43;;;;;;;;;;;20.40;68.70;;;;;;4992104;28;1261;-72
2021/08/26 01:41:08;;;;;;;;;;;20.40;68.80;;;;;;5019074;28;1276;-71
2021/08/26 01:43:34;;;;;;;;;;;20.40;68.60;;;;;;4995607;28;1216;-71
2021/08/26 01:45:59;;;;;;;;;;;20.40;68.40;;;;;;5016843;28;1169;-71
2021/08/26 01:48:25;;;;;;;;;;;20.40;68.30;;;;;;5017845;28;1219;-71
2021/08/26 01:50:50;;;;;;;;;;;20.40;68.30;;;;;;4995733;28;1295;-71
2021/08/26 01:53:16;;;;;;;;;;;20.40;68.30;;;;;;4995297;28;1903;-71
2021/08/26 01:55:41;;;;;;;;;;;20.40;68.30;;;;;;4986646;28;1188;-71
2021/08/26 01:58:08;;;;;;;;;;;20.40;68.30;;;;;;4982938;28;1128;-71
2021/08/26 02:00:33;;;;;;;;;;;20.40;68.30;;;;;;4987971;28;1288;-71
2021/08/26 02:02:59;;;;;;;;;;;20.40;68.30;;;;;;4988491;28;1147;-71
2021/08/26 02:05:24;;;;;;;;;;;20.40;68.40;;;;;;4982043;28;1071;-71
2021/08/26 02:07:50;;;;;;;;;;;20.40;68.40;;;;;;4983989;28;1060;-72
2021/08/26 02:10:15;;;;;;;;;;;20.40;68.40;;;;;;4993443;28;1320;-71
2021/08/26 02:12:41;;;;;;;;;;;20.40;68.40;;;;;;4982806;28;1895;-71
2021/08/26 02:15:07;;;;;;;;;;;20.40;68.40;;;;;;4975767;28;1383;-71
2021/08/26 02:17:32;;;;;;;;;;;20.40;68.40;;;;;;4986283;28;1099;-72
2021/08/26 02:19:57;;;;;;;;;;;20.40;68.40;;;;;;4982827;28;1263;-70
2021/08/26 02:22:23;;;;;;;;;;;20.40;68.40;;;;;;4995465;28;1234;-71
2021/08/26 02:24:48;;;;;;;;;;;20.40;68.50;;;;;;4991509;28;1325;-71
2021/08/26 02:27:14;;;;;;;;;;;20.40;68.40;;;;;;4995306;28;1238;-71
2021/08/26 02:29:39;;;;;;;;;;;20.40;68.40;;;;;;4994046;28;1334;-72
2021/08/26 02:32:05;;;;;;;;;;;20.40;68.50;;;;;;4995105;28;1361;-72
2021/08/26 02:34:30;;;;;;;;;;;20.40;68.50;;;;;;4994790;28;1975;-72
2021/08/26 02:36:55;;;;;;;;;;;20.40;68.50;;;;;;4993146;28;1308;-72
2021/08/26 02:39:21;;;;;;;;;;;20.40;68.50;;;;;;4995149;28;1326;-73
2021/08/26 02:41:46;;;;;;;;;;;20.40;68.50;;;;;;4995030;28;1279;-72
2021/08/26 02:44:12;;;;;;;;;;;20.40;68.50;;;;;;4994682;28;1343;-72
2021/08/26 02:46:37;;;;;;;;;;;20.40;68.50;;;;;;4994922;28;1269;-72
2021/08/26 02:49:03;;;;;;;;;;;20.40;68.50;;;;;;4998763;28;1415;-73
2021/08/26 02:51:28;;;;;;;;;;;20.40;68.50;;;;;;5002629;28;1266;-72
2021/08/26 02:53:53;;;;;;;;;;;20.40;68.50;;;;;;4994476;28;1906;-72
2021/08/26 02:56:19;;;;;;;;;;;20.40;68.50;;;;;;4993488;28;1187;-73
2021/08/26 02:58:44;;;;;;;;;;;20.40;68.50;;;;;;4993493;28;1312;-72
2021/08/26 03:01:10;;;;;;;;;;;20.40;68.50;;;;;;4993435;28;1341;-72
2021/08/26 03:03:35;;;;;;;;;;;20.40;68.50;;;;;;4994347;28;1345;-71
2021/08/26 03:06:01;;;;;;;;;;;20.40;68.50;;;;;;4994549;28;1272;-71
2021/08/26 03:08:26;;;;;;;;;;;20.40;68.50;;;;;;4994602;28;1374;-71
2021/08/26 03:10:51;;;;;;;;;;;20.40;68.50;;;;;;4994478;28;1335;-71
2021/08/26 03:13:17;;;;;;;;;;;20.40;68.50;;;;;;4994119;28;1961;-71
2021/08/26 03:15:42;;;;;;;;;;;20.40;68.50;;;;;;4994412;28;1323;-71
2021/08/26 03:18:08;;;;;;;;;;;20.40;68.50;;;;;;4994281;28;1350;-72
2021/08/26 03:20:33;;;;;;;;;;;20.40;68.60;;;;;;4994116;28;1339;-72
2021/08/26 03:22:59;;;;;;;;;;;20.40;68.60;;;;;;4994317;28;1379;-72
2021/08/26 03:25:25;;;;;;;;;;;20.40;68.60;;;;;;4993995;28;1317;-72
2021/08/26 03:27:51;;;;;;;;;;;20.40;68.60;;;;;;4993276;28;1365;-72
2021/08/26 03:30:17;;;;;;;;;;;20.40;68.60;;;;;;4994132;28;1362;-72
2021/08/26 03:32:42;;;;;;;;;;;20.40;68.60;;;;;;4993993;28;1957;-72
2021/08/26 03:35:08;;;;;;;;;;;20.40;68.60;;;;;;4993982;28;1430;-72
2021/08/26 03:37:33;;;;;;;;;;;20.40;68.60;;;;;;4994196;28;1377;-72
2021/08/26 03:39:59;;;;;;;;;;;20.40;68.60;;;;;;4992843;28;1357;-72
2021/08/26 03:42:24;;;;;;;;;;;20.40;68.60;;;;;;4994037;28;1209;-72
2021/08/26 03:44:49;;;;;;;;;;;20.40;68.70;;;;;;4993761;28;1324;-72
2021/08/26 03:47:15;;;;;;;;;;;20.40;68.70;;;;;;4992490;28;1244;-71
2021/08/26 03:49:40;;;;;;;;;;;20.40;68.70;;;;;;4993627;28;1357;-71
2021/08/26 03:52:06;;;;;;;;;;;20.40;68.60;;;;;;4993888;28;1279;-74
2021/08/26 03:54:31;;;;;;;;;;;20.40;68.60;;;;;;4993490;28;1910;-74
2021/08/26 03:56:57;;;;;;;;;;;20.40;68.70;;;;;;4993630;28;1255;-74
2021/08/26 03:59:22;;;;;;;;;;;20.40;68.60;;;;;;4993793;28;1299;-74
2021/08/26 04:01:47;;;;;;;;;;;20.40;68.60;;;;;;4993505;28;1377;-72
2021/08/26 04:04:13;;;;;;;;;;;20.40;68.60;;;;;;4992160;28;1294;-72
2021/08/26 04:06:38;;;;;;;;;;;20.40;68.60;;;;;;4993432;28;1300;-72
2021/08/26 04:09:04;;;;;;;;;;;20.40;68.60;;;;;;4993962;28;1365;-72
2021/08/26 04:11:29;;;;;;;;;;;20.40;68.70;;;;;;4992354;28;1301;-72
2021/08/26 04:13:54;;;;;;;;;;;20.40;68.70;;;;;;4993163;28;1902;-72
2021/08/26 04:16:20;;;;;;;;;;;20.40;68.70;;;;;;4993368;28;1267;-72
2021/08/26 04:18:45;;;;;;;;;;;20.40;68.70;;;;;;4993346;28;1319;-72
2021/08/26 04:21:11;;;;;;;;;;;20.40;68.60;;;;;;4993272;28;1297;-72
2021/08/26 04:23:36;;;;;;;;;;;20.40;68.60;;;;;;4993271;28;1292;-72
2021/08/26 04:26:02;;;;;;;;;;;20.40;68.60;;;;;;4993318;28;1362;-73
2021/08/26 04:28:27;;;;;;;;;;;20.40;68.70;;;;;;4993356;28;1252;-73
2021/08/26 04:30:52;;;;;;;;;;;20.40;68.70;;;;;;4975808;28;1511;-73
2021/08/26 04:33:18;;;;;;;;;;;20.40;68.70;;;;;;4992769;28;1899;-73
2021/08/26 04:35:43;;;;;;;;;;;20.40;68.60;;;;;;4978804;28;1396;-74
2021/08/26 04:38:09;;;;;;;;;;;20.40;68.60;;;;;;4974020;28;1056;-72
2021/08/26 04:40:35;;;;;;;;;;;20.40;68.70;;;;;;4972463;28;1456;-72
2021/08/26 04:43:00;;;;;;;;;;;20.40;68.70;;;;;;4972686;28;1361;-72
2021/08/26 04:45:25;;;;;;;;;;;20.40;68.60;;;;;;4973784;28;1246;-72
2021/08/26 04:47:51;;;;;;;;;;;20.40;68.70;;;;;;4973559;28;1213;-72
2021/08/26 04:50:16;;;;;;;;;;;20.40;68.60;;;;;;4999324;28;1343;-72
2021/08/26 04:52:42;;;;;;;;;;;20.40;68.60;;;;;;4993151;28;1969;-72
2021/08/26 04:55:07;;;;;;;;;;;20.40;68.60;;;;;;4991683;28;1329;-72
2021/08/26 04:57:33;;;;;;;;;;;20.40;68.60;;;;;;4993095;28;1276;-72
2021/08/26 04:59:58;;;;;;;;;;;20.40;68.60;;;;;;4993848;28;1287;-70
2021/08/26 05:02:23;;;;;;;;;;;20.40;68.60;;;;;;4996723;28;1353;-70
2021/08/26 05:04:49;;;;;;;;;;;20.40;68.60;;;;;;4996539;28;1263;-70
2021/08/26 05:07:15;;;;;;;;;;;20.40;68.70;;;;;;4996817;28;1332;-71
2021/08/26 05:09:40;;;;;;;;;;;20.40;68.60;;;;;;4995717;28;1282;-71
2021/08/26 05:12:08;;;;;;;;;;;20.40;68.60;;;;;;4996533;28;1464;-71
2021/08/26 05:14:33;;;;;;;;;;;20.40;68.70;;;;;;4996421;28;1898;-71
2021/08/26 05:16:59;;;;;;;;;;;20.40;68.70;;;;;;4996455;28;1295;-71
2021/08/26 05:19:24;;;;;;;;;;;20.40;68.60;;;;;;4995538;28;1156;-70
2021/08/26 05:21:50;;;;;;;;;;;20.40;68.70;;;;;;4995263;28;1544;-73
2021/08/26 05:24:15;;;;;;;;;;;20.40;68.70;;;;;;4991704;28;1418;-70
2021/08/26 05:26:41;;;;;;;;;;;20.40;68.70;;;;;;4987345;28;1860;-69
2021/08/26 05:29:06;;;;;;;;;;;20.40;68.60;;;;;;4992811;28;1281;-70
2021/08/26 05:31:32;;;;;;;;;;;20.40;68.70;;;;;;4995090;28;1432;-70
2021/08/26 05:33:57;;;;;;;;;;;20.40;68.60;;;;;;4983100;28;1899;-70
2021/08/26 05:36:22;;;;;;;;;;;20.40;68.60;;;;;;4974309;28;1363;-69
2021/08/26 05:38:48;;;;;;;;;;;20.40;68.60;;;;;;4975894;28;1265;-69
2021/08/26 05:41:13;;;;;;;;;;;20.40;68.60;;;;;;4986710;28;1462;-69
2021/08/26 05:43:39;;;;;;;;;;;20.40;68.50;;;;;;4995097;28;1092;-69
2021/08/26 05:46:05;;;;;;;;;;;20.40;68.50;;;;;;4995138;28;1261;-69
2021/08/26 05:48:31;;;;;;;;;;;20.40;68.50;;;;;;4995415;28;1457;-70
2021/08/26 05:50:56;;;;;;;;;;;20.40;68.50;;;;;;5008412;28;1253;-70
2021/08/26 05:53:21;;;;;;;;;;;20.40;68.50;;;;;;4994809;28;1906;-71
2021/08/26 05:55:47;;;;;;;;;;;20.40;68.50;;;;;;4993530;28;1257;-70
2021/08/26 05:58:13;;;;;;;;;;;20.40;68.50;;;;;;4995269;28;1123;-70
2021/08/26 06:00:38;;;;;;;;;;;20.50;68.50;;;;;;4977241;28;1389;-69
2021/08/26 06:03:04;;;;;;;;;;;20.50;68.20;;;;;;4982608;28;1170;-71
2021/08/26 06:05:29;;;;;;;;;;;20.50;68.10;;;;;;4975292;28;1366;-72
2021/08/26 06:07:55;;;;;;;;;;;20.50;67.80;;;;;;4975500;28;1307;-72
2021/08/26 06:10:20;;;;;;;;;;;20.50;67.80;;;;;;4974962;28;1282;-71
2021/08/26 06:12:46;;;;;;;;;;;20.50;67.70;;;;;;4974119;28;1898;-71
2021/08/26 06:15:11;;;;;;;;;;;20.50;67.70;;;;;;4974696;28;1172;-72
2021/08/26 06:17:37;;;;;;;;;;;20.50;67.70;;;;;;4973946;28;1069;-72
2021/08/26 06:20:03;;;;;;;;;;;20.50;67.70;;;;;;4975134;28;1374;-70
2021/08/26 06:22:29;;;;;;;;;;;20.50;67.90;;;;;;4974192;28;1336;-69
2021/08/26 06:24:54;;;;;;;;;;;20.50;67.70;;;;;;4991200;28;1297;-70
2021/08/26 06:27:19;;;;;;;;;;;20.50;67.70;;;;;;4994299;28;1254;-69
2021/08/26 06:29:45;;;;;;;;;;;20.50;67.50;;;;;;4990215;28;1289;-69
2021/08/26 06:32:10;;;;;;;;;;;20.50;67.70;;;;;;4974718;28;1069;-70
2021/08/26 06:34:36;;;;;;;;;;;20.50;67.70;;;;;;4974651;28;1906;-71
2021/08/26 06:37:01;;;;;;;;;;;20.50;67.60;;;;;;4974828;28;1103;-71
2021/08/26 06:39:27;;;;;;;;;;;20.50;67.70;;;;;;4975142;28;1300;-71
2021/08/26 06:41:52;;;;;;;;;;;20.50;67.50;;;;;;4973098;28;2026;-71
2021/08/26 06:44:18;;;;;;;;;;;20.50;67.50;;;;;;4990744;28;1178;-69
2021/08/26 06:46:44;;;;;;;;;;;20.50;67.70;;;;;;4992882;28;1327;-68
2021/08/26 06:49:09;;;;;;;;;;;20.50;67.60;;;;;;4998942;28;1239;-68
2021/08/26 06:51:35;;;;;;;;;;;20.50;67.70;;;;;;5002104;28;1263;-69
2021/08/26 06:54:00;;;;;;;;;;;20.50;67.40;;;;;;4992931;28;1962;-72
2021/08/26 06:56:25;;;;;;;;;;;20.50;67.70;;;;;;4995022;28;1553;-71
2021/08/26 06:58:51;;;;;;;;;;;20.50;67.60;;;;;;4977543;28;1696;-71
2021/08/26 07:01:16;;;;;;;;;;;20.50;67.50;;;;;;4993005;28;1484;-72
2021/08/26 07:03:42;;;;;;;;;;;20.50;67.60;;;;;;4994368;28;1320;-72
2021/08/26 07:06:07;;;;;;;;;;;20.50;67.50;;;;;;4992774;28;1897;-72
2021/08/26 07:08:33;;;;;;;;;;;20.50;67.60;;;;;;4994519;28;1365;-72
2021/08/26 07:10:58;;;;;;;;;;;20.50;68.00;;;;;;4994323;28;1402;-72
2021/08/26 07:13:24;;;;;;;;;;;20.50;67.60;;;;;;4994219;28;1890;-72
2021/08/26 07:15:49;;;;;;;;;;;20.50;67.80;;;;;;4994329;28;1103;-71
2021/08/26 07:18:18;;;;;;;;;;;20.50;68.10;;;;;;4994413;28;1295;-72
2021/08/26 07:20:43;;;;;;;;;;;20.50;67.70;;;;;;4994227;28;1366;-72
2021/08/26 07:23:09;;;;;;;;;;;20.50;68.10;;;;;;4989546;28;1274;-71
2021/08/26 07:25:34;;;;;;;;;;;20.50;67.90;;;;;;4994001;28;1355;-71
2021/08/26 07:28:00;;;;;;;;;;;20.50;67.60;;;;;;4993968;28;1292;-72
2021/08/26 07:30:26;;;;;;;;;;;20.60;67.60;;;;;;4993791;28;1340;-72
2021/08/26 07:32:52;;;;;;;;;;;20.60;67.90;;;;;;4976977;28;1973;-72
2021/08/26 07:35:17;;;;;;;;;;;20.50;67.40;;;;;;4993913;28;1281;-71
2021/08/26 07:37:43;;;;;;;;;;;20.60;67.80;;;;;;4992833;28;1344;-72
2021/08/26 07:40:11;;;;;;;;;;;20.60;67.60;;;;;;4994017;28;1432;-72
2021/08/26 07:42:36;;;;;;;;;;;20.60;67.60;;;;;;4993838;28;1415;-72
2021/08/26 07:45:03;;;;;;;;;;;20.60;67.40;;;;;;4993562;28;1287;-72
2021/08/26 07:47:29;;;;;;;;;;;20.60;67.50;;;;;;4992667;28;1329;-72
2021/08/26 07:49:54;;;;;;;;;;;20.60;67.60;;;;;;5004978;28;1307;-72
2021/08/26 07:52:20;;;;;;;;;;;20.60;67.50;;;;;;4996132;28;1366;-72
2021/08/26 07:54:45;;;;;;;;;;;20.60;67.30;;;;;;4993540;28;1961;-72
2021/08/26 07:57:11;;;;;;;;;;;20.60;67.40;;;;;;4993627;28;1317;-70
2021/08/26 07:59:36;;;;;;;;;;;20.60;67.40;;;;;;4993646;28;1334;-70
2021/08/26 08:02:01;;;;;;;;;;;20.60;67.30;;;;;;4993604;28;1541;-70
2021/08/26 08:04:27;;;;;;;;;;;20.60;68.30;;;;;;4993651;28;1330;-70
2021/08/26 08:06:52;;;;;;;;;;;20.60;67.20;;;;;;4993642;28;1295;-70
2021/08/26 08:09:18;;;;;;;;;;;20.60;67.20;;;;;;4993597;28;1325;-70
2021/08/26 08:11:43;;;;;;;;;;;20.60;67.50;;;;;;4993551;28;1369;-70
2021/08/26 08:14:08;;;;;;;;;;;20.60;67.60;;;;;;4992989;28;1890;-70
2021/08/26 08:16:34;;;;;;;;;;;20.50;67.40;;;;;;4993518;28;1313;-70
2021/08/26 08:18:59;;;;;;;;;;;20.60;67.40;;;;;;4993326;28;1380;-70
2021/08/26 08:21:25;;;;;;;;;;;20.50;67.50;;;;;;4993791;28;1358;-71
2021/08/26 08:23:50;;;;;;;;;;;20.60;67.80;;;;;;4993138;28;1252;-72
2021/08/26 08:26:16;;;;;;;;;;;20.50;67.60;;;;;;4992009;28;1245;-71
2021/08/26 08:28:41;;;;;;;;;;;20.50;67.10;;;;;;4993524;28;1252;-71
2021/08/26 08:31:06;;;;;;;;;;;20.50;67.20;;;;;;4976400;28;1285;-71
2021/08/26 08:33:32;;;;;;;;;;;20.50;67.20;;;;;;4973749;28;1906;-71
2021/08/26 08:35:58;;;;;;;;;;;20.60;67.00;;;;;;4988322;28;1141;-70
2021/08/26 08:38:23;;;;;;;;;;;20.50;67.40;;;;;;4987566;28;1033;-73
2021/08/26 08:40:49;;;;;;;;;;;20.50;67.50;;;;;;4994346;28;1267;-72
2021/08/26 08:43:14;;;;;;;;;;;20.60;67.60;;;;;;4977510;28;1256;-72
2021/08/26 08:45:44;;;;;;;;;;;20.50;67.80;;;;;;4976617;28;1227;-73
2021/08/26 08:48:09;;;;;;;;;;;20.50;67.30;;;;;;4977704;28;1314;-72
2021/08/26 08:50:34;;;;;;;;;;;20.50;67.40;;;;;;5005884;28;1320;-74
2021/08/26 08:53:00;;;;;;;;;;;20.50;67.70;;;;;;4995737;28;1959;-72
2021/08/26 08:55:25;;;;;;;;;;;20.50;67.30;;;;;;4995503;28;1282;-72
2021/08/26 08:57:51;;;;;;;;;;;20.50;67.30;;;;;;4997160;28;1316;-73
2021/08/26 09:00:17;;;;;;;;;;;20.50;67.60;;;;;;4997281;28;1363;-73
2021/08/26 09:02:42;;;;;;;;;;;20.50;67.50;;;;;;4996061;28;1291;-72
2021/08/26 09:05:08;;;;;;;;;;;20.50;67.80;;;;;;4996108;28;1344;-72
2021/08/26 09:07:33;;;;;;;;;;;20.50;67.60;;;;;;4997522;28;1299;-72
2021/08/26 09:09:59;;;;;;;;;;;20.50;66.90;;;;;;4986523;28;1386;-73
2021/08/26 09:12:40;;;;;;;;;;;20.50;66.80;;;;;;4996355;28;1296;-73
2021/08/26 09:15:09;;;;;;;;;;;20.50;66.90;;;;;;4999465;28;1903;-74
2021/08/26 09:17:34;;;;;;;;;;;20.50;66.40;;;;;;4999068;28;1304;-72
2021/08/26 09:20:03;;;;;;;;;;;20.50;66.20;;;;;;4997087;28;1383;-75
2021/08/26 09:22:28;;;;;;;;;;;20.50;66.30;;;;;;4996044;28;1260;-74
2021/08/26 09:24:54;;;;;;;;;;;20.50;66.10;;;;;;4995175;28;1335;-74
2021/08/26 09:27:31;;;;;;;;;;;20.50;66.70;;;;;;4995336;28;1072;-75
2021/08/26 09:29:57;;;;;;;;;;;20.50;67.00;;;;;;4995557;28;1307;-75
2021/08/26 09:32:23;;;;;;;;;;;20.50;66.70;;;;;;4977790;28;1558;-73
2021/08/26 09:34:48;;;;;;;;;;;20.50;66.80;;;;;;4993945;28;1968;-75
2021/08/26 09:37:14;;;;;;;;;;;20.50;66.80;;;;;;4995668;28;1243;-73
2021/08/26 09:39:39;;;;;;;;;;;20.50;66.70;;;;;;4993384;28;1390;-73
2021/08/26 09:42:05;;;;;;;;;;;20.50;67.10;;;;;;5018568;28;1225;-74
2021/08/26 09:44:31;;;;;;;;;;;20.50;66.80;;;;;;4992952;28;1462;-73
2021/08/26 09:46:58;;;;;;;;;;;20.50;67.00;;;;;;4994913;28;1240;-75
2021/08/26 09:49:25;;;;;;;;;;;20.50;67.40;;;;;;4995697;28;1222;-75
2021/08/26 09:52:03;;;;;;;;;;;20.50;66.90;;;;;;4999460;28;1382;-73
2021/08/26 09:54:33;;;;;;;;;;;20.50;66.90;;;;;;4993944;28;1902;-71
2021/08/26 09:56:58;;;;;;;;;;;20.50;67.30;;;;;;4992522;28;1295;-72
2021/08/26 09:59:43;;;;;;;;;;;20.50;67.50;;;;;;4991577;28;1476;-73
2021/08/26 10:02:09;;;;;;;;;;;20.50;67.50;;;;;;4994606;28;1682;-73
2021/08/26 10:04:34;;;;;;;;;;;20.50;67.50;;;;;;4977084;28;1702;-73
2021/08/26 10:07:00;;;;;;;;;;;20.50;67.60;;;;;;4993597;28;1719;-73
2021/08/26 10:09:25;;;;;;;;;;;20.50;67.60;;;;;;4992571;28;2330;-72
2021/08/26 10:11:50;;;;;;;;;;;20.50;67.00;;;;;;4991210;28;1288;-73
2021/08/26 10:14:16;;;;;;;;;;;20.50;67.00;;;;;;4992467;28;1907;-72
2021/08/26 10:16:41;;;;;;;;;;;20.50;67.20;;;;;;4980092;28;1097;-72
2021/08/26 10:19:07;;;;;;;;;;;20.50;67.10;;;;;;4992739;28;1282;-72
2021/08/26 10:21:32;;;;;;;;;;;20.50;67.00;;;;;;4959585;28;1012797;-72
2021/08/26 10:23:58;;;;;;;;;;;20.50;67.00;;;;;;4994855;28;1225;-72
2021/08/26 10:26:23;;;;;;;;;;;20.50;67.20;;;;;;4990361;28;1073;-73
2021/08/26 10:28:49;;;;;;;;;;;20.50;67.30;;;;;;4987515;28;1181;-73
2021/08/26 10:31:24;;;;;;;;;;;20.50;67.30;;;;;;4991341;28;1264;-73
2021/08/26 10:33:49;;;;;;;;;;;20.50;68.50;;;;;;4973758;28;1906;-73
2021/08/26 10:36:15;;;;;;;;;;;20.50;67.20;;;;;;4975467;28;1056;-71
2021/08/26 10:38:41;;;;;;;;;;;20.50;67.30;;;;;;4974263;28;1254;-73
2021/08/26 10:41:18;;;;;;;;;;;20.50;67.30;;;;;;4988547;28;1274;-72
2021/08/26 10:43:43;;;;;;;;;;;20.50;67.40;;;;;;4974776;28;1339;-71
2021/08/26 10:46:10;;;;;;;;;;;20.50;67.30;;;;;;4973680;28;1270;-72
2021/08/26 10:48:35;;;;;;;;;;;20.50;67.40;;;;;;4974167;28;1306;-71
2021/08/26 10:51:17;;;;;;;;;;;20.50;67.40;;;;;;5006285;28;1323;-72
2021/08/26 10:53:43;;;;;;;;;;;20.50;66.70;;;;;;4992936;28;1898;-72
2021/08/26 10:56:16;;;;;;;;;;;20.50;67.20;;;;;;4994527;28;1171;-72
2021/08/26 10:58:41;;;;;;;;;;;20.50;66.80;;;;;;4993341;28;1312;-71
2021/08/26 11:01:07;;;;;;;;;;;20.50;67.60;;;;;;4994712;28;1213;-72
2021/08/26 11:03:33;;;;;;;;;;;20.50;67.70;;;;;;4976896;28;1089;-71
2021/08/26 11:06:28;;;;;;;;;;;20.50;67.30;;;;;;4974889;28;1108;-71
2021/08/26 11:08:54;;;;;;;;;;;20.50;68.20;;;;;;4981629;28;1288;-72
2021/08/26 11:11:31;;;;;;;;;;;20.50;68.70;;;;;;4992697;28;1401;-72
2021/08/26 11:14:03;;;;;;;;;;;20.50;68.30;;;;;;4993812;28;2300;-72
2021/08/26 11:16:28;;;;;;;;;;;20.50;68.50;;;;;;4978024;28;1041;-72
2021/08/26 11:18:54;;;;;;;;;;;20.50;68.10;;;;;;4974713;28;1360;-72
2021/08/26 11:21:38;;;;;;;;;;;20.50;68.50;;;;;;4989535;28;1281;-73
2021/08/26 11:24:03;;;;;;;;;;;20.50;68.90;;;;;;4992459;28;1150;-70
2021/08/26 11:26:48;;;;;;;;;;;20.50;69.00;;;;;;4993633;28;1248;-71
2021/08/26 11:29:22;;;;;;;;;;;20.50;67.60;;;;;;4991207;28;1111;-71
2021/08/26 11:31:53;;;;;;;;;;;20.50;68.40;;;;;;4994110;28;1224;-72
2021/08/26 11:34:25;;;;;;;;;;;20.50;68.00;;;;;;4993209;28;1907;-72
2021/08/26 11:37:01;;;;;;;;;;;20.50;68.50;;;;;;4992530;28;1308;-72
2021/08/26 11:39:27;;;;;;;;;;;20.50;68.10;;;;;;4993630;28;1256;-72
2021/08/26 11:41:53;;;;;;;;;;;20.50;69.00;;;;;;4993702;28;1323;-72
2021/08/26 11:44:18;;;;;;;;;;;20.50;67.80;;;;;;4993020;28;1145;-73
2021/08/26 11:46:43;;;;;;;;;;;20.50;68.00;;;;;;5006248;28;1199;-72
2021/08/26 11:49:09;;;;;;;;;;;20.50;66.90;;;;;;5023152;28;1251;-72
2021/08/26 11:51:34;;;;;;;;;;;20.50;67.60;;;;;;5002171;28;1321;-71
2021/08/26 11:54:10;;;;;;;;;;;20.50;67.40;;;;;;4992171;28;1902;-71
2021/08/26 11:56:52;;;;;;;;;;;20.50;66.80;;;;;;4993873;28;1072;-72
2021/08/26 11:59:37;;;;;;;;;;;20.50;66.10;;;;;;4993500;28;1134;-72
2021/08/26 12:02:18;;;;;;;;;;;20.50;66.60;;;;;;4993700;28;1426;-71
2021/08/26 12:04:44;;;;;;;;;;;20.50;65.70;;;;;;4993323;28;1366;-71
2021/08/26 12:07:10;;;;;;;;;;;20.50;65.80;;;;;;4992423;28;1492;-71
2021/08/26 12:09:36;;;;;;;;;;;20.50;65.80;;;;;;4992791;28;1267;-72
2021/08/26 12:12:11;;;;;;;;;;;20.50;66.20;;;;;;4992750;28;1431;-71
2021/08/26 12:14:36;;;;;;;;;;;20.50;65.60;;;;;;4999772;28;1894;-72
2021/08/26 12:17:11;;;;;;;;;;;20.40;65.40;;;;;;4992412;28;1288;-69
2021/08/26 12:19:36;;;;;;;;;;;20.50;65.50;;;;;;4991407;28;1270;-69
2021/08/26 12:22:02;;;;;;;;;;;20.50;65.80;;;;;;4992600;28;1299;-71
2021/08/26 12:24:27;;;;;;;;;;;20.50;65.70;;;;;;4991331;28;1269;-71
2021/08/26 12:26:52;;;;;;;;;;;20.50;65.80;;;;;;4992879;28;1268;-72
2021/08/26 12:29:18;;;;;;;;;;;20.50;65.80;;;;;;4992995;28;1209;-73
2021/08/26 12:31:47;;;;;;;;;;;20.50;66.10;;;;;;4992827;28;1372;-71
2021/08/26 12:34:13;;;;;;;;;;;20.40;65.50;;;;;;4992396;28;1879;-72
2021/08/26 12:36:42;;;;;;;;;;;20.40;65.70;;;;;;4975096;28;1253;-72
2021/08/26 12:39:17;;;;;;;;;;;20.40;66.10;;;;;;4992780;28;1351;-72
2021/08/26 12:41:42;;;;;;;;;;;20.50;66.00;;;;;;4990429;28;1302;-71
2021/08/26 12:44:08;;;;;;;;;;;20.40;66.40;;;;;;4989520;28;1355;-71
2021/08/26 12:46:39;;;;;;;;;;;20.40;66.50;;;;;;4991286;28;1332;-73
2021/08/26 12:49:08;;;;;;;;;;;20.40;65.80;;;;;;4996990;28;1106;-72
2021/08/26 12:51:34;;;;;;;;;;;20.40;65.70;;;;;;5000368;28;1294;-71
2021/08/26 12:54:02;;;;;;;;;;;20.50;65.70;;;;;;4992546;28;1902;-71
2021/08/26 12:56:28;;;;;;;;;;;20.40;65.40;;;;;;4993246;28;1199;-72
2021/08/26 12:58:53;;;;;;;;;;;20.40;65.30;;;;;;4991854;28;1369;-71
2021/08/26 13:01:20;;;;;;;;;;;20.40;65.70;;;;;;4993122;28;1351;-72
2021/08/26 13:03:50;;;;;;;;;;;20.40;65.90;;;;;;4990285;28;1359;-72
2021/08/26 13:06:34;;;;;;;;;;;20.50;66.20;;;;;;4979000;28;1257;-71
2021/08/26 13:09:06;;;;;;;;;;;20.40;66.10;;;;;;4981209;28;1375;-72
2021/08/26 13:11:32;;;;;;;;;;;20.40;66.20;;;;;;4992760;28;1390;-72
2021/08/26 13:13:57;;;;;;;;;;;20.50;66.30;;;;;;4992870;28;1944;-71
2021/08/26 13:16:22;;;;;;;;;;;20.50;66.20;;;;;;4991203;28;1287;-72
2021/08/26 13:18:48;;;;;;;;;;;20.50;66.10;;;;;;4973321;28;1269;-72
2021/08/26 13:21:14;;;;;;;;;;;20.50;66.00;;;;;;4974154;28;1363;-72
2021/08/26 13:23:43;;;;;;;;;;;20.50;65.70;;;;;;4982163;28;1350;-72
2021/08/26 13:26:09;;;;;;;;;;;20.50;65.00;;;;;;4995311;28;1365;-72
2021/08/26 13:28:34;;;;;;;;;;;20.50;64.40;;;;;;4996202;28;1279;-73
2021/08/26 13:30:59;;;;;;;;;;;20.50;63.60;;;;;;4996207;28;1321;-72
2021/08/26 13:33:25;;;;;;;;;;;20.50;63.80;;;;;;4995755;28;2014;-72
2021/08/26 13:35:50;;;;;;;;;;;20.60;64.10;;;;;;4996365;28;1339;-71
2021/08/26 13:38:16;;;;;;;;;;;20.60;64.10;;;;;;4995029;28;1299;-71
2021/08/26 13:40:41;;;;;;;;;;;20.60;63.80;;;;;;4996289;28;1390;-71
2021/08/26 13:43:07;;;;;;;;;;;20.60;63.90;;;;;;4994338;28;1207;-71
2021/08/26 13:45:32;;;;;;;;;;;20.60;63.80;;;;;;4995799;28;1259;-71
2021/08/26 13:47:59;;;;;;;;;;;20.60;64.10;;;;;;4996324;28;1143;-71
2021/08/26 13:50:25;;;;;;;;;;;20.50;63.90;;;;;;5008979;28;1290;-72
2021/08/26 13:52:50;;;;;;;;;;;20.50;64.10;;;;;;4995000;28;1104;-71
2021/08/26 13:55:15;;;;;;;;;;;20.50;64.20;;;;;;4993059;28;2095;-72
2021/08/26 13:57:41;;;;;;;;;;;20.50;64.70;;;;;;4995335;28;1279;-72
2021/08/26 14:00:07;;;;;;;;;;;20.50;64.00;;;;;;4994477;28;1377;-72
2021/08/26 14:02:32;;;;;;;;;;;20.50;64.40;;;;;;4986207;28;1253;-72
2021/08/26 14:04:58;;;;;;;;;;;20.50;64.20;;;;;;4985679;28;2218;-72
2021/08/26 14:07:23;;;;;;;;;;;20.50;64.90;;;;;;4995273;28;1107;-71
2021/08/26 14:09:49;;;;;;;;;;;20.50;64.40;;;;;;4995420;28;1304;-72
2021/08/26 14:12:14;;;;;;;;;;;20.50;64.40;;;;;;4995413;28;1384;-71
2021/08/26 14:14:39;;;;;;;;;;;20.50;64.80;;;;;;4994960;28;1898;-71
2021/08/26 14:17:05;;;;;;;;;;;20.50;64.60;;;;;;4995658;28;1232;-71
2021/08/26 14:19:30;;;;;;;;;;;20.50;64.90;;;;;;4991400;28;1475;-69
2021/08/26 14:21:56;;;;;;;;;;;20.50;64.80;;;;;;4994291;28;1363;-70
2021/08/26 14:24:21;;;;;;;;;;;20.50;65.10;;;;;;4994719;28;1239;-70
2021/08/26 14:26:47;;;;;;;;;;;20.50;65.00;;;;;;4995124;28;1326;-70
2021/08/26 14:29:12;;;;;;;;;;;20.50;65.30;;;;;;4994801;28;1149;-70
2021/08/26 14:31:37;;;;;;;;;;;20.50;65.40;;;;;;4995232;28;1317;-71